Time;durP1;ratioP1;P1;durP2;ratioP2;P2;SDS_P1;SDS_P2;PMS_P1;PMS_P2;Temp;Humidity;BMP_temperature;BMP_pressure;BME280_temperature;BME280_humidity;BME280_pressure;Samples;Min_cycle;Max_cycle;Signal;HPM_P1;HPM_P2
2023/05/11 00:02:12;;;;;;;;;5.00;4.00;;;;;-147.47;100.00;64613.53;5031409;28;45289;-84
2023/05/11 00:04:38;;;;;;;;;2.00;2.00;;;;;-147.47;100.00;64613.53;5027448;28;45852;-83
2023/05/11 00:07:04;;;;;;;;;6.33;5.00;;;;;-147.47;100.00;64613.53;5037317;28;45605;-84
2023/05/11 00:09:30;;;;;;;;;2.67;2.67;;;;;-147.47;100.00;64613.53;5016587;28;46546;-83
2023/05/11 00:11:56;;;;;;;;;7.33;7.33;;;;;-147.47;100.00;64613.53;5018830;28;45428;-85
2023/05/11 00:14:22;;;;;;;;;4.67;3.33;;;;;-147.47;100.00;64613.53;5033610;28;45428;-83
2023/05/11 00:16:47;;;;;;;;;4.67;4.67;;;;;-147.47;100.00;64613.53;5014873;28;46078;-83
2023/05/11 00:19:13;;;;;;;;;3.67;3.00;;;;;-147.47;100.00;64613.53;5035682;28;45940;-82
2023/05/11 00:21:38;;;;;;;;;2.33;2.00;;;;;-147.47;100.00;64613.53;5036855;28;45987;-83
2023/05/11 00:24:04;;;;;;;;;5.00;3.33;;;;;-147.47;100.00;64613.53;5031746;28;45378;-80
2023/05/11 00:26:29;;;;;;;;;4.33;3.00;;;;;-147.47;100.00;64613.53;5013776;28;45372;-81
2023/05/11 00:28:55;;;;;;;;;4.00;3.33;;;;;-147.47;100.00;64613.53;5029809;28;45418;-82
2023/05/11 00:31:20;;;;;;;;;6.33;3.33;;;;;-147.47;100.00;64613.53;5036931;28;45848;-82
2023/05/11 00:33:46;;;;;;;;;5.00;4.00;;;;;-147.47;100.00;64613.53;5015749;28;45741;-80
2023/05/11 00:36:11;;;;;;;;;3.67;3.00;;;;;-147.47;100.00;64613.53;5022427;28;45459;-83
2023/05/11 00:38:40;;;;;;;;;5.33;4.33;;;;;-147.47;100.00;64613.53;5033885;28;45734;-83
2023/05/11 00:41:06;;;;;;;;;8.67;6.33;;;;;-147.47;100.00;64613.53;5034012;28;45810;-83
2023/05/11 00:43:32;;;;;;;;;8.00;5.00;;;;;-147.47;100.00;64613.53;5034835;28;45900;-81
2023/05/11 00:45:58;;;;;;;;;5.00;5.00;;;;;-147.47;100.00;64613.53;5032777;28;45565;-82
2023/05/11 00:48:23;;;;;;;;;5.00;3.67;;;;;-147.47;100.00;64613.53;5033398;28;46372;-82
2023/05/11 00:50:49;;;;;;;;;4.33;3.00;;;;;-147.47;100.00;64613.53;5023813;28;45432;-81
2023/05/11 00:53:15;;;;;;;;;4.67;3.67;;;;;-147.47;100.00;64613.53;5033338;28;45358;-81
2023/05/11 00:55:41;;;;;;;;;5.00;4.00;;;;;-147.47;100.00;64613.53;5015138;28;45893;-81
2023/05/11 00:58:07;;;;;;;;;2.00;2.00;;;;;-147.47;100.00;64613.53;5018491;28;48301;-81
2023/05/11 01:00:32;;;;;;;;;5.00;4.00;;;;;-147.47;100.00;64613.53;5014874;28;45830;-82
2023/05/11 01:03:00;;;;;;;;;3.00;3.00;;;;;-147.47;100.00;64613.53;5025147;28;45752;-81
2023/05/11 01:05:43;;;;;;;;;4.33;3.00;;;;;-147.47;100.00;64613.53;5039264;28;46612;-81
2023/05/11 01:08:16;;;;;;;;;3.67;2.33;;;;;-147.47;100.00;64613.53;5027489;28;46333;-82
2023/05/11 01:10:54;;;;;;;;;5.00;3.00;;;;;-147.47;100.00;64613.53;5037598;28;45803;-82
2023/05/11 01:13:32;;;;;;;;;4.00;3.00;;;;;-147.47;100.00;64613.53;5052947;28;45813;-82
2023/05/11 01:16:04;;;;;;;;;2.33;2.33;;;;;-147.47;100.00;64613.53;5026598;28;45511;-81
2023/05/11 01:18:42;;;;;;;;;4.33;2.33;;;;;-147.47;100.00;64613.53;5036144;28;46196;-81
2023/05/11 01:21:10;;;;;;;;;4.67;2.00;;;;;-147.47;100.00;64613.53;5035357;28;45908;-82
2023/05/11 01:24:08;;;;;;;;;2.00;2.00;;;;;-147.47;100.00;64613.53;5036894;28;45910;-83
2023/05/11 01:26:52;;;;;;;;;4.00;4.00;;;;;-147.47;100.00;64613.53;5019069;28;47175;-81
2023/05/11 01:29:41;;;;;;;;;2.33;2.33;;;;;-147.47;100.00;64613.53;5022764;28;46424;-83
2023/05/11 01:32:17;;;;;;;;;6.00;3.00;;;;;-147.47;100.00;64613.53;5026262;28;45541;-83
2023/05/11 01:34:45;;;;;;;;;2.00;2.00;;;;;-147.47;100.00;64613.53;5039670;28;45550;-83
2023/05/11 01:37:15;;;;;;;;;1.00;1.00;;;;;-147.47;100.00;64613.53;5035848;28;45711;-82
2023/05/11 01:39:51;;;;;;;;;5.00;2.00;;;;;-147.47;100.00;64613.53;5037039;28;46102;-83
2023/05/11 01:42:23;;;;;;;;;2.33;2.00;;;;;-147.47;100.00;64613.53;5021944;28;45424;-83
2023/05/11 01:44:52;;;;;;;;;3.00;3.00;;;;;-147.47;100.00;64613.53;5019555;28;45472;-81
2023/05/11 01:47:20;;;;;;;;;3.33;2.00;;;;;-147.47;100.00;64613.53;5019848;28;45816;-80
2023/05/11 01:49:46;;;;;;;;;4.00;2.00;;;;;-147.47;100.00;64613.53;5038548;28;45597;-83
2023/05/11 01:52:13;;;;;;;;;2.00;1.67;;;;;-147.47;100.00;64613.53;5038457;28;45698;-81
2023/05/11 01:54:40;;;;;;;;;1.00;1.00;;;;;-147.47;100.00;64613.53;5027671;28;45402;-81
2023/05/11 01:57:08;;;;;;;;;2.00;2.00;;;;;-147.47;100.00;64613.53;5012881;28;46198;-82
2023/05/11 01:59:35;;;;;;;;;1.67;1.33;;;;;-147.47;100.00;64613.53;5030936;28;45990;-81
2023/05/11 02:02:02;;;;;;;;;1.33;1.33;;;;;-147.47;100.00;64613.53;5036307;28;45425;-82
2023/05/11 02:04:29;;;;;;;;;1.00;1.00;;;;;-147.47;100.00;64613.53;5031537;28;45571;-83
2023/05/11 02:06:58;;;;;;;;;2.00;1.00;;;;;-147.47;100.00;64613.53;5009235;28;45928;-82
2023/05/11 02:09:24;;;;;;;;;2.00;2.00;;;;;-147.47;100.00;64613.53;5035982;28;45614;-81
2023/05/11 02:11:52;;;;;;;;;2.67;1.67;;;;;-147.47;100.00;64613.53;5033604;28;45846;-82
2023/05/11 02:14:21;;;;;;;;;2.00;2.00;;;;;-147.47;100.00;64613.53;5031193;28;45849;-83
2023/05/11 02:16:49;;;;;;;;;3.00;1.00;;;;;-147.47;100.00;64613.53;5038600;28;45475;-83
2023/05/11 02:19:16;;;;;;;;;3.00;1.67;;;;;-147.47;100.00;64613.53;5037710;28;45527;-82
2023/05/11 02:21:43;;;;;;;;;2.67;1.33;;;;;-147.47;100.00;64613.53;5034188;28;45441;-83
2023/05/11 02:24:09;;;;;;;;;1.33;1.33;;;;;-147.47;100.00;64613.53;5027578;28;45961;-82
2023/05/11 02:26:35;;;;;;;;;3.00;3.00;;;;;-147.47;100.00;64613.53;5037180;28;45357;-82
2023/05/11 02:29:01;;;;;;;;;2.67;2.00;;;;;-147.47;100.00;64613.53;5035929;28;45878;-82
2023/05/11 02:31:28;;;;;;;;;4.67;3.00;;;;;-147.47;100.00;64613.53;5023609;28;45709;-82
2023/05/11 02:33:59;;;;;;;;;2.00;2.00;;;;;-147.47;100.00;64613.53;5037280;28;45395;-80
2023/05/11 02:36:28;;;;;;;;;1.67;1.67;;;;;-147.47;100.00;64613.53;5014439;28;45542;-81
2023/05/11 02:39:01;;;;;;;;;3.33;2.33;;;;;-147.47;100.00;64613.53;5037897;28;46737;-81
2023/05/11 02:41:28;;;;;;;;;5.33;3.33;;;;;-147.47;100.00;64613.53;5031981;28;45820;-82
2023/05/11 02:43:57;;;;;;;;;3.00;3.00;;;;;-147.47;100.00;64613.53;5033550;28;45663;-82
2023/05/11 02:46:28;;;;;;;;;2.00;2.00;;;;;-147.47;100.00;64613.53;5010355;28;46466;-82
2023/05/11 02:48:59;;;;;;;;;2.33;2.33;;;;;-147.47;100.00;64613.53;5048864;28;46763;-83
2023/05/11 02:51:31;;;;;;;;;1.00;1.00;;;;;-147.47;100.00;64613.53;5011454;28;45488;-81
2023/05/11 02:53:58;;;;;;;;;2.67;1.67;;;;;-147.47;100.00;64613.53;5038065;28;45891;-82
2023/05/11 02:56:24;;;;;;;;;2.00;1.00;;;;;-147.47;100.00;64613.53;5038335;28;45468;-82
2023/05/11 02:58:50;;;;;;;;;2.00;2.00;;;;;-147.47;100.00;64613.53;5037572;28;47097;-83
2023/05/11 03:01:16;;;;;;;;;3.67;1.33;;;;;-147.47;100.00;64613.53;5033957;28;45640;-82
2023/05/11 03:03:41;;;;;;;;;2.00;2.00;;;;;-147.47;100.00;64613.53;5033856;28;46258;-82
2023/05/11 03:06:07;;;;;;;;;2.00;1.00;;;;;-147.47;100.00;64613.53;5026867;28;45632;-82
2023/05/11 03:08:34;;;;;;;;;2.33;2.00;;;;;-147.47;100.00;64613.53;5028460;28;45508;-81
2023/05/11 03:11:04;;;;;;;;;2.33;1.00;;;;;-147.47;100.00;64613.53;5020907;28;45768;-81
2023/05/11 03:13:31;;;;;;;;;2.00;2.00;;;;;-147.47;100.00;64613.53;5018521;28;45704;-82
2023/05/11 03:15:59;;;;;;;;;2.00;1.67;;;;;-147.47;100.00;64613.53;5031957;28;45542;-82
2023/05/11 03:18:25;;;;;;;;;1.00;1.00;;;;;-147.47;100.00;64613.53;5046663;28;45805;-82
2023/05/11 03:20:51;;;;;;;;;2.00;2.00;;;;;-147.47;100.00;64613.53;5041630;28;45417;-81
2023/05/11 03:23:17;;;;;;;;;0.00;0.00;;;;;-147.47;100.00;64613.53;5030620;28;45382;-81
2023/05/11 03:25:44;;;;;;;;;3.00;1.00;;;;;-147.47;100.00;64613.53;5028519;28;45881;-81
2023/05/11 03:28:12;;;;;;;;;4.00;3.00;;;;;-147.47;100.00;64613.53;5037378;28;45756;-83
2023/05/11 03:30:42;;;;;;;;;2.33;2.00;;;;;-147.47;100.00;64613.53;5018707;28;45643;-82
2023/05/11 03:33:08;;;;;;;;;3.00;2.00;;;;;-147.47;100.00;64613.53;5022321;28;45691;-81
2023/05/11 03:35:36;;;;;;;;;1.00;1.00;;;;;-147.47;100.00;64613.53;5039225;28;45727;-78
2023/05/11 03:38:03;;;;;;;;;2.67;1.00;;;;;-147.47;100.00;64613.53;5016703;28;45609;-82
2023/05/11 03:40:32;;;;;;;;;2.00;2.00;;;;;-147.47;100.00;64613.53;5033417;28;45888;-79
2023/05/11 03:43:00;;;;;;;;;2.00;2.00;;;;;-147.47;100.00;64613.53;5033844;28;45772;-81
2023/05/11 03:45:28;;;;;;;;;1.00;1.00;;;;;-147.47;100.00;64613.53;5032033;28;45148;-81
2023/05/11 03:47:56;;;;;;;;;4.00;2.33;;;;;-147.47;100.00;64613.53;5011600;28;48294;-81
2023/05/11 03:50:22;;;;;;;;;1.67;1.67;;;;;-147.47;100.00;64613.53;5036658;28;45721;-80
2023/05/11 03:52:48;;;;;;;;;3.33;0.67;;;;;-147.47;100.00;64613.53;5035936;28;45549;-80
2023/05/11 03:55:13;;;;;;;;;1.33;1.33;;;;;-147.47;100.00;64613.53;5033953;28;45773;-79
2023/05/11 03:57:39;;;;;;;;;1.33;0.33;;;;;-147.47;100.00;64613.53;5037285;28;45749;-80
2023/05/11 04:00:09;;;;;;;;;2.00;1.00;;;;;-147.47;100.00;64613.53;5036059;28;45860;-83
2023/05/11 04:02:35;;;;;;;;;2.67;2.00;;;;;-147.47;100.00;64613.53;5018547;28;45685;-84
2023/05/11 04:05:06;;;;;;;;;1.00;1.00;;;;;-147.47;100.00;64613.53;5034196;28;45166;-83
2023/05/11 04:07:31;;;;;;;;;1.00;1.00;;;;;-147.47;100.00;64613.53;5038214;28;46118;-83
2023/05/11 04:09:57;;;;;;;;;3.67;2.33;;;;;-147.47;100.00;64613.53;5030891;28;45409;-83
2023/05/11 04:12:22;;;;;;;;;3.00;3.00;;;;;-147.47;100.00;64613.53;5036499;28;45473;-81
2023/05/11 04:14:47;;;;;;;;;1.00;0.67;;;;;-147.47;100.00;64613.53;5036209;28;45525;-82
2023/05/11 04:17:13;;;;;;;;;2.33;1.67;;;;;-147.47;100.00;64613.53;5030195;28;45890;-83
2023/05/11 04:19:38;;;;;;;;;2.33;2.33;;;;;-147.47;100.00;64613.53;5034533;28;44826;-81
2023/05/11 04:22:04;;;;;;;;;1.33;1.33;;;;;-147.47;100.00;64613.53;5031637;28;45851;-83
2023/05/11 04:24:29;;;;;;;;;2.67;2.67;;;;;-147.47;100.00;64613.53;5028777;28;45847;-82
2023/05/11 04:26:56;;;;;;;;;3.67;3.00;;;;;-147.47;100.00;64613.53;5036727;28;46274;-81
2023/05/11 04:29:23;;;;;;;;;2.00;2.00;;;;;-147.47;100.00;64613.53;5048133;28;45343;-82
2023/05/11 04:31:48;;;;;;;;;4.67;1.67;;;;;-147.47;100.00;64613.53;5032644;28;45568;-82
2023/05/11 04:34:13;;;;;;;;;3.00;1.00;;;;;-147.47;100.00;64613.53;5041281;28;45504;-83
2023/05/11 04:36:39;;;;;;;;;4.33;2.00;;;;;-147.47;100.00;64613.53;5044826;28;46057;-83
2023/05/11 04:39:04;;;;;;;;;1.67;1.67;;;;;-147.47;100.00;64613.53;5038503;28;45763;-82
2023/05/11 04:41:30;;;;;;;;;3.00;2.00;;;;;-147.47;100.00;64613.53;5035538;28;46341;-82
2023/05/11 04:43:55;;;;;;;;;2.33;2.33;;;;;-147.47;100.00;64613.53;5034819;28;45561;-84
2023/05/11 04:46:22;;;;;;;;;4.33;3.00;;;;;-147.47;100.00;64613.53;5018905;28;47001;-84
2023/05/11 04:48:47;;;;;;;;;2.00;1.67;;;;;-147.47;100.00;64613.53;5037117;28;45406;-85
2023/05/11 04:51:13;;;;;;;;;2.00;2.00;;;;;-147.47;100.00;64613.53;5042192;28;45967;-83
2023/05/11 04:53:38;;;;;;;;;3.67;2.33;;;;;-147.47;100.00;64613.53;5038957;28;45449;-82
2023/05/11 04:56:04;;;;;;;;;1.00;1.00;;;;;-147.47;100.00;64613.53;5027610;28;46767;-81
2023/05/11 04:58:29;;;;;;;;;2.00;2.00;;;;;-147.47;100.00;64613.53;5041645;28;45722;-83
2023/05/11 05:00:55;;;;;;;;;3.33;2.33;;;;;-147.47;100.00;64613.53;5023650;28;45447;-82
2023/05/11 05:03:20;;;;;;;;;3.67;1.67;;;;;-147.47;100.00;64613.53;5054137;28;45481;-83
2023/05/11 05:05:47;;;;;;;;;4.00;4.00;;;;;-147.47;100.00;64613.53;5029318;28;47096;-76
2023/05/11 05:08:13;;;;;;;;;3.00;2.33;;;;;-147.47;100.00;64613.53;5041903;28;45812;-76
2023/05/11 05:10:38;;;;;;;;;4.33;3.33;;;;;-147.47;100.00;64613.53;5022587;28;45539;-76
2023/05/11 05:13:04;;;;;;;;;6.67;2.00;;;;;-147.47;100.00;64613.53;5042828;28;45770;-78
2023/05/11 05:15:34;;;;;;;;;9.00;4.00;;;;;-147.47;100.00;64613.53;5043083;28;45596;-78
2023/05/11 05:17:59;;;;;;;;;4.00;2.67;;;;;-147.47;100.00;64613.53;5047572;28;44848;-84
2023/05/11 05:20:25;;;;;;;;;2.67;2.67;;;;;-147.47;100.00;64613.53;5033946;28;45318;-82
2023/05/11 05:22:50;;;;;;;;;1.67;1.67;;;;;-147.47;100.00;64613.53;5040273;28;45883;-84
2023/05/11 05:25:17;;;;;;;;;4.67;3.00;;;;;-147.47;100.00;64613.53;5018919;28;47317;-85
2023/05/11 05:27:42;;;;;;;;;3.00;3.00;;;;;-147.47;100.00;64613.53;5032666;28;45608;-83
2023/05/11 05:30:08;;;;;;;;;3.00;3.00;;;;;-147.47;100.00;64613.53;5043430;28;45443;-83
2023/05/11 05:32:33;;;;;;;;;7.33;3.00;;;;;-147.47;100.00;64613.53;5037071;28;45501;-83
2023/05/11 05:34:59;;;;;;;;;2.33;2.33;;;;;-147.47;100.00;64613.53;5028856;28;46657;-81
2023/05/11 05:37:24;;;;;;;;;6.67;3.67;;;;;-147.47;100.00;64613.53;5024693;28;45379;-82
2023/05/11 05:39:50;;;;;;;;;2.67;2.33;;;;;-147.47;100.00;64613.53;5043320;28;45798;-81
2023/05/11 05:42:21;;;;;;;;;3.67;2.00;;;;;-147.47;100.00;64613.53;5048008;28;45931;-86
2023/05/11 05:44:48;;;;;;;;;2.33;1.00;;;;;-147.47;100.00;64613.53;5044465;28;46229;-84
2023/05/11 05:47:13;;;;;;;;;2.33;2.00;;;;;-147.47;100.00;64613.53;5028782;28;45654;-84
2023/05/11 05:49:39;;;;;;;;;4.33;3.00;;;;;-147.47;100.00;64613.53;5027977;28;45552;-84
2023/05/11 05:52:05;;;;;;;;;3.00;2.00;;;;;-147.47;100.00;64613.53;5042345;28;45885;-84
2023/05/11 05:54:30;;;;;;;;;4.33;2.67;;;;;-147.47;100.00;64613.53;5041463;28;46566;-85
2023/05/11 05:56:56;;;;;;;;;3.00;2.00;;;;;-147.47;100.00;64613.53;5043960;28;45630;-83
2023/05/11 05:59:23;;;;;;;;;6.00;3.00;;;;;-147.47;100.00;64613.53;5023021;28;45746;-87
2023/05/11 06:01:50;;;;;;;;;1.00;1.00;;;;;-147.47;100.00;64613.53;5029020;28;45588;-85
2023/05/11 06:04:15;;;;;;;;;4.33;3.67;;;;;-147.47;100.00;64613.53;5032754;28;45407;-81
2023/05/11 06:06:41;;;;;;;;;5.00;3.00;;;;;-147.47;100.00;64613.53;5041747;28;45359;-85
2023/05/11 06:09:06;;;;;;;;;5.00;2.00;;;;;-147.47;100.00;64613.53;5041360;28;45379;-84
2023/05/11 06:11:32;;;;;;;;;2.33;2.00;;;;;-147.47;100.00;64613.53;5059580;28;45580;-80
2023/05/11 06:13:57;;;;;;;;;3.00;2.00;;;;;-147.47;100.00;64613.53;5022396;28;46530;-85
2023/05/11 06:16:26;;;;;;;;;5.33;3.00;;;;;-147.47;100.00;64613.53;5044091;28;45406;-86
2023/05/11 06:18:52;;;;;;;;;3.00;3.00;;;;;-147.47;100.00;64613.53;5043791;28;45507;-82
2023/05/11 06:21:18;;;;;;;;;4.00;3.00;;;;;-147.47;100.00;64613.53;5028367;28;45504;-81
2023/05/11 06:23:48;;;;;;;;;2.67;2.67;;;;;-147.47;100.00;64613.53;5028356;28;45482;-84
2023/05/11 06:26:13;;;;;;;;;3.33;3.00;;;;;-147.47;100.00;64613.53;5017249;28;45318;-84
2023/05/11 06:28:39;;;;;;;;;4.67;4.67;;;;;-147.47;100.00;64613.53;5035163;28;45875;-85
2023/05/11 06:31:04;;;;;;;;;7.33;5.00;;;;;-147.47;100.00;64613.53;5041504;28;45489;-84
2023/05/11 06:33:30;;;;;;;;;6.67;6.33;;;;;-147.47;100.00;64613.53;5036450;28;45992;-83
2023/05/11 06:35:59;;;;;;;;;8.67;5.00;;;;;-147.47;100.00;64613.53;5013970;28;45404;-82
2023/05/11 06:38:25;;;;;;;;;5.33;4.33;;;;;-147.47;100.00;64613.53;5023783;28;45561;-83
2023/05/11 06:40:53;;;;;;;;;3.33;2.67;;;;;-147.47;100.00;64613.53;5040907;28;45744;-85
2023/05/11 06:43:19;;;;;;;;;4.00;3.00;;;;;-147.47;100.00;64613.53;5039532;28;45485;-84
2023/05/11 06:45:44;;;;;;;;;6.00;3.00;;;;;-147.47;100.00;64613.53;5019329;28;45467;-83
2023/05/11 06:48:10;;;;;;;;;5.33;4.33;;;;;-147.47;100.00;64613.53;5037487;28;46400;-84
2023/05/11 06:50:36;;;;;;;;;5.00;4.00;;;;;-147.47;100.00;64613.53;5040361;28;45818;-84
2023/05/11 06:53:02;;;;;;;;;6.33;3.67;;;;;-147.47;100.00;64613.53;5038565;28;45520;-83
2023/05/11 06:55:27;;;;;;;;;4.67;4.67;;;;;-147.47;100.00;64613.53;5039670;28;44805;-85
2023/05/11 06:57:53;;;;;;;;;7.67;4.00;;;;;-147.47;100.00;64613.53;5038092;28;45783;-84
2023/05/11 07:00:19;;;;;;;;;2.67;2.67;;;;;-147.47;100.00;64613.53;5036940;28;45556;-85
2023/05/11 07:02:44;;;;;;;;;3.67;3.67;;;;;-147.47;100.00;64613.53;5037867;28;46705;-85
2023/05/11 07:05:11;;;;;;;;;6.67;5.00;;;;;-147.47;100.00;64613.53;5024506;28;45554;-85
2023/05/11 07:07:37;;;;;;;;;5.00;4.33;;;;;-147.47;100.00;64613.53;5018583;28;45737;-84
2023/05/11 07:10:04;;;;;;;;;4.00;3.00;;;;;-147.47;100.00;64613.53;5024381;28;46334;-85
2023/05/11 07:12:30;;;;;;;;;4.33;4.00;;;;;-147.47;100.00;64613.53;5023761;28;46456;-86
2023/05/11 07:14:55;;;;;;;;;3.33;3.33;;;;;-147.47;100.00;64613.53;5028721;28;45853;-84
2023/05/11 07:17:23;;;;;;;;;7.67;5.67;;;;;-147.47;100.00;64613.53;5042706;28;45423;-84
2023/05/11 07:19:51;;;;;;;;;7.67;3.67;;;;;-147.47;100.00;64613.53;5041206;28;45592;-86
2023/05/11 07:22:17;;;;;;;;;8.00;4.00;;;;;-147.47;100.00;64613.53;5038377;28;45514;-85
2023/05/11 07:24:42;;;;;;;;;4.00;4.00;;;;;-147.47;100.00;64613.53;5038854;28;45282;-84
2023/05/11 07:27:10;;;;;;;;;3.33;3.33;;;;;-147.47;100.00;64613.53;5040859;28;45401;-84
2023/05/11 07:29:35;;;;;;;;;5.00;3.00;;;;;-147.47;100.00;64613.53;5041438;28;45423;-83
2023/05/11 07:32:01;;;;;;;;;5.00;3.33;;;;;-147.47;100.00;64613.53;5039878;28;46379;-85
2023/05/11 07:34:26;;;;;;;;;4.00;3.67;;;;;-147.47;100.00;64613.53;5019992;28;44981;-84
2023/05/11 07:36:52;;;;;;;;;3.00;3.00;;;;;-147.47;100.00;64613.53;5018823;28;45384;-83
2023/05/11 07:39:18;;;;;;;;;4.00;4.00;;;;;-147.47;100.00;64613.53;5022547;28;45773;-84
2023/05/11 07:41:43;;;;;;;;;4.00;4.00;;;;;-147.47;100.00;64613.53;5031852;28;47192;-84
2023/05/11 07:44:09;;;;;;;;;4.00;4.00;;;;;-147.47;100.00;64613.53;5036391;28;45667;-84
2023/05/11 07:46:34;;;;;;;;;5.00;4.00;;;;;-147.47;100.00;64613.53;5049152;28;45393;-84
2023/05/11 07:49:00;;;;;;;;;4.00;3.33;;;;;-147.47;100.00;64613.53;5026164;28;45727;-83
2023/05/11 07:51:26;;;;;;;;;6.00;4.67;;;;;-147.47;100.00;64613.53;5038098;28;46099;-85
2023/05/11 07:53:51;;;;;;;;;4.00;2.67;;;;;-147.47;100.00;64613.53;5040414;28;44771;-84
2023/05/11 07:56:17;;;;;;;;;4.33;4.33;;;;;-147.47;100.00;64613.53;5038794;28;45332;-84
2023/05/11 07:58:42;;;;;;;;;4.00;3.00;;;;;-147.47;100.00;64613.53;5019898;28;45440;-85
2023/05/11 08:01:08;;;;;;;;;8.33;6.00;;;;;-147.47;100.00;64613.53;5042953;28;46185;-83
2023/05/11 08:03:34;;;;;;;;;8.67;4.67;;;;;-147.47;100.00;64613.53;5046218;28;45291;-85
2023/05/11 08:05:59;;;;;;;;;10.00;6.00;;;;;-147.47;100.00;64613.53;5030077;28;45509;-84
2023/05/11 08:08:25;;;;;;;;;6.33;4.33;;;;;-147.47;100.00;64613.53;5025104;28;45469;-85
2023/05/11 08:10:51;;;;;;;;;5.00;4.00;;;;;-147.47;100.00;64613.53;5020665;28;47144;-85
2023/05/11 08:13:17;;;;;;;;;5.00;5.00;;;;;-147.47;100.00;64613.53;5037370;28;45405;-85
2023/05/11 08:15:43;;;;;;;;;7.33;5.67;;;;;-147.47;100.00;64613.53;5017269;28;45522;-82
2023/05/11 08:18:09;;;;;;;;;3.75;3.75;;;;;-147.47;100.00;64613.53;5041737;28;45583;-84
2023/05/11 08:20:35;;;;;;;;;5.75;4.50;;;;;-147.47;100.00;64613.53;5040125;28;47601;-85
2023/05/11 08:23:01;;;;;;;;;8.00;6.33;;;;;-147.47;100.00;64613.53;5026235;28;44778;-86
2023/05/11 08:25:26;;;;;;;;;5.33;5.00;;;;;-147.47;100.00;64613.53;5041445;28;45493;-83
2023/05/11 08:27:52;;;;;;;;;5.00;4.00;;;;;-147.47;100.00;64613.53;5031341;28;45568;-77
2023/05/11 08:30:18;;;;;;;;;6.00;4.33;;;;;-147.47;100.00;64613.53;5041156;28;45998;-85
2023/05/11 08:32:43;;;;;;;;;6.67;6.67;;;;;-147.47;100.00;64613.53;5028089;28;45727;-78
2023/05/11 08:35:09;;;;;;;;;3.33;3.33;;;;;-147.47;100.00;64613.53;5027877;28;45478;-77
2023/05/11 08:37:34;;;;;;;;;5.33;5.33;;;;;-147.47;100.00;64613.53;5030446;28;45695;-77
2023/05/11 08:39:59;;;;;;;;;7.33;7.33;;;;;-147.47;100.00;64613.53;5024110;28;45758;-79
2023/05/11 08:42:28;;;;;;;;;6.75;4.25;;;;;-147.47;100.00;64613.53;5017653;28;45982;-77
2023/05/11 08:44:55;;;;;;;;;8.00;6.75;;;;;-147.47;100.00;64613.53;5016905;28;45846;-76
2023/05/11 08:47:22;;;;;;;;;4.25;4.25;;;;;-147.47;100.00;64613.53;5010393;28;46156;-76
2023/05/11 08:49:49;;;;;;;;;4.25;4.25;;;;;-147.47;100.00;64613.53;5025305;28;48185;-79
2023/05/11 08:52:16;;;;;;;;;7.25;6.00;;;;;-147.47;100.00;64613.53;5021881;28;45571;-77
2023/05/11 08:54:42;;;;;;;;;6.25;6.00;;;;;-147.47;100.00;64613.53;5016511;28;45377;-77
2023/05/11 08:57:08;;;;;;;;;6.75;6.75;;;;;-147.47;100.00;64613.53;5000122;28;46123;-76
2023/05/11 08:59:35;;;;;;;;;7.00;6.50;;;;;-147.47;100.00;64613.53;5037654;28;45483;-84
2023/05/11 09:02:03;;;;;;;;;4.75;4.50;;;;;-147.47;100.00;64613.53;5023932;28;45437;-86
2023/05/11 09:04:30;;;;;;;;;6.25;6.25;;;;;-147.47;100.00;64613.53;5016401;28;45630;-85
2023/05/11 09:06:56;;;;;;;;;6.25;5.25;;;;;-147.47;100.00;64613.53;5022856;28;46471;-85
2023/05/11 09:09:22;;;;;;;;;7.00;5.50;;;;;-147.47;100.00;64613.53;5040788;28;45762;-85
2023/05/11 09:11:48;;;;;;;;;3.25;3.25;;;;;-147.47;100.00;64613.53;5041620;28;45431;-83
2023/05/11 09:14:14;;;;;;;;;6.50;6.25;;;;;-147.47;100.00;64613.53;5026086;28;45440;-83
2023/05/11 09:16:40;;;;;;;;;8.25;5.50;;;;;-147.47;100.00;64613.53;5043304;28;45387;-82
2023/05/11 09:19:06;;;;;;;;;6.50;6.50;;;;;-147.47;100.00;64613.53;5033656;28;45440;-86
2023/05/11 09:21:31;;;;;;;;;6.75;6.75;;;;;-147.47;100.00;64613.53;5024856;28;45728;-83
2023/05/11 09:24:00;;;;;;;;;6.75;6.75;;;;;-147.47;100.00;64613.53;5024865;28;45384;-82
2023/05/11 09:26:28;;;;;;;;;8.00;5.25;;;;;-147.47;100.00;64613.53;5040969;28;45387;-85
2023/05/11 09:28:58;;;;;;;;;3.00;3.00;;;;;-147.47;100.00;64613.53;5041614;28;45981;-84
2023/05/11 09:31:44;;;;;;;;;4.00;4.00;;;;;-147.47;100.00;64613.53;5039760;28;45710;-84
2023/05/11 09:34:13;;;;;;;;;7.25;6.00;;;;;-147.47;100.00;64613.53;5044075;28;45406;-82
2023/05/11 09:36:46;;;;;;;;;4.25;4.25;;;;;-147.47;100.00;64613.53;5029282;28;45640;-84
2023/05/11 09:39:12;;;;;;;;;9.50;6.00;;;;;-147.47;100.00;64613.53;5036686;28;45477;-85
2023/05/11 09:41:38;;;;;;;;;7.50;7.50;;;;;-147.47;100.00;64613.53;5043386;28;45463;-83
2023/05/11 09:44:14;;;;;;;;;5.50;5.00;;;;;-147.47;100.00;64613.53;5040722;28;45804;-83
2023/05/11 09:46:41;;;;;;;;;5.00;5.00;;;;;-147.47;100.00;64613.53;5033519;28;45721;-84
2023/05/11 09:49:08;;;;;;;;;3.75;3.75;;;;;-147.47;100.00;64613.53;5019028;28;46982;-84
2023/05/11 09:51:35;;;;;;;;;7.75;6.00;;;;;-147.47;100.00;64613.53;5029594;28;45690;-85
2023/05/11 09:54:15;;;;;;;;;3.00;3.00;;;;;-147.47;100.00;64613.53;5025861;28;45484;-85
2023/05/11 09:56:59;;;;;;;;;6.25;4.00;;;;;-147.47;100.00;64613.53;5026650;28;45869;-83
2023/05/11 09:59:40;;;;;;;;;3.50;3.00;;;;;-147.47;100.00;64613.53;5044477;28;47086;-85
2023/05/11 10:02:22;;;;;;;;;5.00;4.00;;;;;-147.47;100.00;64613.53;5046258;28;45769;-85
2023/05/11 10:04:50;;;;;;;;;3.25;3.00;;;;;-147.47;100.00;64613.53;5034815;28;46174;-85
2023/05/11 10:07:28;;;;;;;;;6.00;4.75;;;;;-147.47;100.00;64613.53;5037152;28;45645;-86
2023/05/11 10:10:31;;;;;;;;;4.00;3.00;;;;;-147.47;100.00;64613.53;5033112;28;46162;-86
2023/05/11 10:12:59;;;;;;;;;3.25;3.25;;;;;-147.47;100.00;64613.53;5028879;28;45685;-86
2023/05/11 10:15:30;;;;;;;;;3.75;3.75;;;;;-147.47;100.00;64613.53;5024817;28;45463;-84
2023/05/11 10:17:59;;;;;;;;;4.00;4.00;;;;;-147.47;100.00;64613.53;5037714;28;45398;-86
2023/05/11 10:20:25;;;;;;;;;6.00;5.00;;;;;-147.47;100.00;64613.53;5027720;28;45958;-87
2023/05/11 10:22:55;;;;;;;;;3.75;3.00;;;;;-147.47;100.00;64613.53;5036619;28;45730;-87
2023/05/11 10:25:22;;;;;;;;;4.75;4.00;;;;;-147.47;100.00;64613.53;5026449;28;45477;-84
2023/05/11 10:27:47;;;;;;;;;2.00;2.00;;;;;-147.47;100.00;64613.53;5015815;28;46057;-84
2023/05/11 10:30:13;;;;;;;;;5.50;4.00;;;;;-147.47;100.00;64613.53;5037348;28;46425;-86
2023/05/11 10:32:39;;;;;;;;;2.00;2.00;;;;;-147.47;100.00;64613.53;5046972;28;45478;-86
2023/05/11 10:35:06;;;;;;;;;3.50;2.00;;;;;-147.47;100.00;64613.53;5044091;28;46003;-86
2023/05/11 10:37:32;;;;;;;;;2.25;2.00;;;;;-147.47;100.00;64613.53;5022379;28;46165;-85
2023/05/11 10:39:58;;;;;;;;;4.00;3.00;;;;;-147.47;100.00;64613.53;5026377;28;47321;-86
2023/05/11 10:42:56;;;;;;;;;3.25;3.25;;;;;-147.47;100.00;64613.53;5040520;28;45362;-84
2023/05/11 10:45:28;;;;;;;;;5.25;4.00;;;;;-147.47;100.00;64613.53;5037403;28;46084;-85
2023/05/11 10:48:06;;;;;;;;;5.50;3.75;;;;;-147.47;100.00;64613.53;5036489;28;45501;-87
2023/05/11 10:50:49;;;;;;;;;2.75;2.75;;;;;-147.47;100.00;64613.53;5043862;28;45489;-84
2023/05/11 10:53:30;;;;;;;;;5.25;4.00;;;;;-147.47;100.00;64613.53;5038197;28;45519;-84
2023/05/11 10:56:02;;;;;;;;;3.50;3.50;;;;;-147.47;100.00;64613.53;5039952;28;45780;-84
2023/05/11 10:58:33;;;;;;;;;4.00;4.00;;;;;-147.47;100.00;64613.53;5038538;28;45701;-83
2023/05/11 11:01:25;;;;;;;;;4.00;3.00;;;;;-147.47;100.00;64613.53;5040818;28;46469;-82
2023/05/11 11:04:01;;;;;;;;;4.75;2.25;;;;;-147.47;100.00;64613.53;5031738;28;45889;-86
2023/05/11 11:06:28;;;;;;;;;3.75;3.75;;;;;-147.47;100.00;64613.53;5037600;28;45438;-83
2023/05/11 11:09:03;;;;;;;;;2.75;2.75;;;;;-147.47;100.00;64613.53;5026719;28;45857;-84
2023/05/11 11:11:49;;;;;;;;;6.00;4.00;;;;;-147.47;100.00;64613.53;5008681;28;47913;-85
2023/05/11 11:14:17;;;;;;;;;3.25;2.00;;;;;-147.47;100.00;64613.53;5037495;28;45355;-83